Linden, West Virginia
Current Conditions -  °F | °C
As of 5:54 PM on Thursday 23 Oct 2014 (Local Time) from KCRW Reporting Station
Scattered Clouds Scattered Clouds  
Wind Chill: 56°   Ceiling: Unl
Heat Index: 56°   Visibility: 10mi
Dew Point: 42°   Wind: 0mph
Humidity: 60%   Direction: NA
Pressure: 30.12"   Gusts: NA
Location:  38.72°N, 81.21°W
Report Text: KCRW 232154Z 00000KT 10SM SCT037 13/06 A3012 RMK AO2 SLP198 T01330056
Loading
Personal Weather Stations






























Interactive Weather Map
Tropical Storm Tracking
New forecast layout! Learn more

10-Day Weather Forecast

Advertisements
Track Severe Weather on mobile